createdAt,value
2019-03-25T00:00:46.297Z,568.3
2019-03-25T00:01:48.730Z,568.7
2019-03-25T00:02:51.161Z,568.9
2019-03-25T00:03:53.309Z,568.7
2019-03-25T00:04:55.734Z,569.2
2019-03-25T00:05:58.154Z,569
2019-03-25T00:07:00.597Z,569.4
2019-03-25T00:08:02.795Z,569.7
2019-03-25T00:09:07.338Z,569.7
2019-03-25T00:10:09.778Z,569.5
2019-03-25T00:11:12.196Z,570
2019-03-25T00:12:14.643Z,570.2
2019-03-25T00:13:17.075Z,570.3
2019-03-25T00:14:19.261Z,570.1
2019-03-25T00:15:21.440Z,570.2
2019-03-25T00:16:23.589Z,570.4
2019-03-25T00:17:26.025Z,570.5
2019-03-25T00:18:28.444Z,570.5
2019-03-25T00:19:30.881Z,570.4
2019-03-25T00:20:33.309Z,570.1
2019-03-25T00:21:35.738Z,570.5
2019-03-25T00:22:37.868Z,570.8
2019-03-25T00:23:40.307Z,570.7
2019-03-25T00:24:42.201Z,570.9
2019-03-25T00:25:44.623Z,571.3
2019-03-25T00:26:46.757Z,571.1
2019-03-25T00:27:49.186Z,571.3
2019-03-25T00:28:51.619Z,571.3
2019-03-25T00:29:54.045Z,571.3
2019-03-25T00:30:56.476Z,571.4
2019-03-25T00:31:58.361Z,571.5
2019-03-25T00:33:00.498Z,571.3
2019-03-25T00:34:02.948Z,571.7
2019-03-25T00:35:05.106Z,572.1
2019-03-25T00:36:07.595Z,572.1
2019-03-25T00:37:10.018Z,572.1
2019-03-25T00:38:12.448Z,572
2019-03-25T00:39:14.604Z,572.3
2019-03-25T00:40:17.037Z,572.1
2019-03-25T00:41:19.469Z,572.3
2019-03-25T00:42:21.898Z,572.2
2019-03-25T00:43:24.324Z,572.6
2019-03-25T00:44:26.745Z,572.5
2019-03-25T00:45:29.171Z,572.9
2019-03-25T00:46:31.586Z,572.4
2019-03-25T00:47:33.782Z,573.2
2019-03-25T00:48:35.935Z,573.7
2019-03-25T00:49:38.110Z,573.7
2019-03-25T00:50:40.535Z,573.7
2019-03-25T00:51:42.978Z,573.6
2019-03-25T00:52:45.448Z,574
2019-03-25T00:53:47.868Z,573.7
2019-03-25T00:54:52.265Z,573.9
2019-03-25T00:55:54.691Z,574.4
2019-03-25T00:56:56.848Z,574.3
2019-03-25T00:57:59.282Z,574.2
2019-03-25T00:59:01.709Z,574.5
2019-03-25T01:00:04.147Z,574.8
2019-03-25T01:01:06.306Z,574.4
2019-03-25T01:02:08.741Z,574.8
2019-03-25T01:03:11.162Z,574.7
2019-03-25T01:04:13.288Z,574.9
2019-03-25T01:05:15.715Z,574.9
2019-03-25T01:06:17.877Z,575.1
2019-03-25T01:07:20.507Z,575.4
2019-03-25T01:08:22.922Z,575.7
2019-03-25T01:09:25.370Z,575.6
2019-03-25T01:10:27.802Z,575.5
2019-03-25T01:11:30.226Z,575.7
2019-03-25T01:12:32.129Z,575.9
2019-03-25T01:13:34.550Z,576.1
2019-03-25T01:14:36.980Z,576.2
2019-03-25T01:15:39.407Z,576.2
2019-03-25T01:16:41.834Z,576.2
2019-03-25T01:17:44.268Z,576.2
2019-03-25T01:18:46.469Z,576.4
2019-03-25T01:19:48.908Z,576.3
2019-03-25T01:20:51.365Z,575.8
2019-03-25T01:21:53.783Z,576.1
2019-03-25T01:22:55.922Z,575.4
2019-03-25T01:23:58.073Z,575.6
2019-03-25T01:26:05.195Z,575.7
2019-03-25T01:27:07.071Z,575.8
2019-03-25T01:28:09.492Z,575.8
2019-03-25T01:29:11.939Z,575.8
2019-03-25T01:30:14.098Z,576.1
2019-03-25T01:31:16.553Z,576.1
2019-03-25T01:32:18.975Z,576.3
2019-03-25T01:33:20.839Z,576.3
2019-03-25T01:34:23.269Z,576.1
2019-03-25T01:35:25.715Z,576.1
2019-03-25T01:36:28.134Z,576.6
2019-03-25T01:37:30.561Z,576.7
2019-03-25T01:38:32.720Z,576.7
2019-03-25T01:39:34.897Z,577
2019-03-25T01:40:37.319Z,577.2
2019-03-25T01:41:39.464Z,577.4
2019-03-25T01:42:41.914Z,577.6
2019-03-25T01:43:44.336Z,577.3
2019-03-25T01:44:46.773Z,576.9
2019-03-25T01:45:48.924Z,577.3
2019-03-25T01:46:51.350Z,577.5
2019-03-25T01:47:53.786Z,577.3
2019-03-25T01:48:55.938Z,577.6
2019-03-25T01:49:58.365Z,577.7
2019-03-25T01:51:00.515Z,578
2019-03-25T01:52:02.398Z,578.1
2019-03-25T01:53:04.549Z,578.2
2019-03-25T01:54:06.424Z,578.4
2019-03-25T01:56:13.561Z,578.3
2019-03-25T01:57:15.996Z,578.5
2019-03-25T01:58:18.423Z,578.5
2019-03-25T01:59:20.618Z,578
2019-03-25T02:00:23.045Z,578.3
2019-03-25T02:01:25.193Z,578.1
2019-03-25T02:02:27.646Z,578.6
2019-03-25T02:03:30.119Z,578.7
2019-03-25T02:04:32.550Z,578.8
2019-03-25T02:05:35.014Z,578.3
2019-03-25T02:06:37.176Z,578.7
2019-03-25T02:07:39.598Z,578.4
2019-03-25T02:08:42.028Z,578.5
2019-03-25T02:09:44.466Z,579
2019-03-25T02:10:46.599Z,578.8
2019-03-25T02:11:48.768Z,579
2019-03-25T02:12:51.201Z,579.5
2019-03-25T02:13:53.618Z,579.5
2019-03-25T02:14:55.756Z,579.9
2019-03-25T02:15:58.192Z,579.5
2019-03-25T02:17:00.620Z,579.6
2019-03-25T02:18:03.061Z,579.2
2019-03-25T02:19:05.489Z,579
2019-03-25T02:20:07.916Z,579.3
2019-03-25T02:21:10.077Z,579.3
2019-03-25T02:22:12.518Z,579.7
2019-03-25T02:23:15.399Z,579.4
2019-03-25T02:24:18.060Z,579.6
2019-03-25T02:26:25.174Z,580
2019-03-25T02:27:27.606Z,579.7
2019-03-25T02:28:30.046Z,579.7
2019-03-25T02:29:32.507Z,579.3
2019-03-25T02:30:34.936Z,580
2019-03-25T02:31:37.364Z,579.4
2019-03-25T02:32:39.787Z,579.3
2019-03-25T02:33:42.217Z,579.3
2019-03-25T02:34:44.643Z,579.7
2019-03-25T02:35:47.067Z,579.3
2019-03-25T02:36:49.198Z,579.4
2019-03-25T02:37:51.631Z,579.5
2019-03-25T02:38:54.051Z,579
2019-03-25T02:39:56.475Z,578.7
2019-03-25T02:40:58.913Z,578.4
2019-03-25T02:42:01.078Z,578.9
2019-03-25T02:43:03.228Z,579.1
2019-03-25T02:44:05.652Z,578.9
2019-03-25T02:45:08.076Z,578.3
2019-03-25T02:46:10.508Z,578.5
2019-03-25T02:47:12.655Z,578.8
2019-03-25T02:48:15.069Z,578.8
2019-03-25T02:49:17.235Z,578.6
2019-03-25T02:50:19.654Z,578.8
2019-03-25T02:51:21.826Z,579.2
2019-03-25T02:52:24.252Z,579.2
2019-03-25T02:53:26.743Z,580
2019-03-25T02:54:29.160Z,581
2019-03-25T02:56:36.601Z,581.3
2019-03-25T02:57:38.742Z,581.6
2019-03-25T02:58:41.194Z,581.3
2019-03-25T02:59:43.341Z,581.3
2019-03-25T03:00:45.749Z,581.4
2019-03-25T03:01:48.186Z,581.2
2019-03-25T03:02:50.622Z,581.7
2019-03-25T03:03:53.053Z,581.2
2019-03-25T03:04:55.493Z,581.4
2019-03-25T03:05:57.961Z,581.2
2019-03-25T03:07:00.400Z,581.1
2019-03-25T03:08:02.851Z,580.8
2019-03-25T03:09:05.015Z,580.5
2019-03-25T03:10:07.436Z,580.5
2019-03-25T03:11:09.336Z,580.4
2019-03-25T03:12:11.773Z,580.4
2019-03-25T03:13:14.214Z,580.4
2019-03-25T03:14:17.487Z,580.8
2019-03-25T03:15:19.908Z,581
2019-03-25T03:16:22.047Z,580.8
2019-03-25T03:17:24.503Z,580.6
2019-03-25T03:18:26.672Z,580.8
2019-03-25T03:19:29.130Z,581.1
2019-03-25T03:20:31.550Z,581
2019-03-25T03:21:33.702Z,581.1
2019-03-25T03:22:35.917Z,581.1
2019-03-25T03:23:38.339Z,580.8
2019-03-25T03:24:40.499Z,581.2
2019-03-25T03:26:47.651Z,581
2019-03-25T03:27:49.841Z,580.8
2019-03-25T03:28:52.108Z,581.2
2019-03-25T03:29:54.524Z,581.2
2019-03-25T03:30:56.718Z,580.9
2019-03-25T03:31:59.159Z,580.7
2019-03-25T03:33:01.659Z,580.3
2019-03-25T03:34:03.931Z,580.6
2019-03-25T03:35:06.363Z,580.6
2019-03-25T03:36:08.809Z,580.4
2019-03-25T03:37:11.244Z,580.5
2019-03-25T03:38:13.414Z,580.5
2019-03-25T03:39:15.656Z,580.9
2019-03-25T03:40:18.081Z,580.8
2019-03-25T03:41:20.510Z,581
2019-03-25T03:42:22.942Z,581
2019-03-25T03:43:25.376Z,581.4
2019-03-25T03:44:27.281Z,581.2
2019-03-25T03:45:29.456Z,581.2
2019-03-25T03:46:31.901Z,581.1
2019-03-25T03:47:34.065Z,581.1
2019-03-25T03:48:36.496Z,581.4
2019-03-25T03:49:38.941Z,581.6
2019-03-25T03:50:41.366Z,581.4
2019-03-25T03:51:43.288Z,581.4
2019-03-25T03:52:45.726Z,581
2019-03-25T03:53:48.172Z,581.2
2019-03-25T03:54:50.331Z,581.3
2019-03-25T03:55:52.789Z,581.1
2019-03-25T03:56:55.230Z,581.2
2019-03-25T03:57:57.670Z,581.8
2019-03-25T03:59:00.112Z,581.4
2019-03-25T04:00:02.721Z,581.1
2019-03-25T04:01:05.278Z,581.4
2019-03-25T04:02:07.751Z,580.9
2019-03-25T04:03:10.181Z,581.2
2019-03-25T04:04:12.621Z,581.3
2019-03-25T04:05:15.046Z,581.7
2019-03-25T04:06:17.493Z,581.4
2019-03-25T04:07:19.929Z,580.9
2019-03-25T04:08:22.065Z,581.4
2019-03-25T04:09:24.503Z,581.4
2019-03-25T04:10:26.935Z,581.7
2019-03-25T04:11:29.089Z,581.6
2019-03-25T04:12:31.516Z,581.9
2019-03-25T04:13:33.680Z,581.5
2019-03-25T04:14:36.103Z,581.3
2019-03-25T04:15:38.556Z,581.6
2019-03-25T04:16:40.721Z,581.8
2019-03-25T04:17:43.144Z,581.9
2019-03-25T04:18:45.302Z,581.9
2019-03-25T04:19:47.730Z,582.4
2019-03-25T04:20:49.888Z,582.2
2019-03-25T04:21:52.035Z,581.8
2019-03-25T04:22:54.518Z,581.5
2019-03-25T04:23:56.689Z,581.5
2019-03-25T04:24:58.826Z,581.3
2019-03-25T04:26:01.274Z,581.6
2019-03-25T04:27:03.724Z,581.4
2019-03-25T04:28:06.207Z,581.8
2019-03-25T04:29:08.398Z,581.8
2019-03-25T04:30:10.571Z,581.8
2019-03-25T04:31:13.000Z,581.8
2019-03-25T04:32:15.442Z,581.6
2019-03-25T04:33:17.297Z,581.5
2019-03-25T04:34:19.721Z,581.5
2019-03-25T04:35:22.139Z,581.5
2019-03-25T04:36:24.361Z,581.3
2019-03-25T04:37:26.618Z,581.4
2019-03-25T04:38:29.058Z,581.2
2019-03-25T04:39:31.467Z,581.7
2019-03-25T04:40:33.909Z,581.8
2019-03-25T04:41:36.323Z,581.5
2019-03-25T04:42:38.478Z,581.5
2019-03-25T04:43:40.626Z,581.8
2019-03-25T04:44:42.780Z,581.9
2019-03-25T04:45:44.908Z,582.2
2019-03-25T04:46:46.779Z,582.2
2019-03-25T04:47:48.940Z,581.9
2019-03-25T04:48:51.383Z,582
2019-03-25T04:49:53.511Z,581.9
2019-03-25T04:50:55.678Z,582.7
2019-03-25T04:51:57.838Z,582.7
2019-03-25T04:53:00.253Z,582.5
2019-03-25T04:54:02.678Z,583
2019-03-25T04:55:05.108Z,582.6
2019-03-25T04:56:07.271Z,583.1
2019-03-25T04:57:09.416Z,582.7
2019-03-25T04:58:11.583Z,582.9
2019-03-25T04:59:13.788Z,582.5
2019-03-25T05:00:15.664Z,582.4
2019-03-25T05:01:18.098Z,582.2
2019-03-25T05:02:20.534Z,582.6
2019-03-25T05:03:22.952Z,582.8
2019-03-25T05:04:25.412Z,582.4
2019-03-25T05:05:27.864Z,582.1
2019-03-25T05:06:30.288Z,582.7
2019-03-25T05:07:32.708Z,582.6
2019-03-25T05:08:35.137Z,582.6
2019-03-25T05:09:37.004Z,582.4
2019-03-25T05:10:39.437Z,582.3
2019-03-25T05:11:41.316Z,582.8
2019-03-25T05:12:43.748Z,582.3
2019-03-25T05:13:45.922Z,582.3
2019-03-25T05:14:48.060Z,582.1
2019-03-25T05:15:50.228Z,582.2
2019-03-25T05:16:52.668Z,582
2019-03-25T05:17:55.094Z,581.8
2019-03-25T05:18:56.972Z,581.5
2019-03-25T05:19:59.151Z,581.1
2019-03-25T05:21:01.581Z,581.3
2019-03-25T05:22:04.004Z,581.6
2019-03-25T05:23:06.184Z,581.4
2019-03-25T05:24:08.338Z,581.8
2019-03-25T05:25:10.775Z,581.8
2019-03-25T05:26:12.938Z,581.6
2019-03-25T05:27:15.377Z,581.5
2019-03-25T05:28:17.814Z,581.7
2019-03-25T05:29:20.252Z,581.2
2019-03-25T05:30:24.896Z,581.3
2019-03-25T05:31:27.028Z,581.3
2019-03-25T05:32:29.459Z,581.6
2019-03-25T05:33:31.928Z,581.3
2019-03-25T05:34:34.384Z,581.9
2019-03-25T05:35:36.820Z,581
2019-03-25T05:36:39.238Z,581.3
2019-03-25T05:37:41.667Z,581.4
2019-03-25T05:38:43.858Z,581.3
2019-03-25T05:39:46.262Z,581.1
2019-03-25T05:40:48.422Z,581.7
2019-03-25T05:41:50.847Z,581.3
2019-03-25T05:42:53.287Z,581.3
2019-03-25T05:43:55.734Z,581.7
2019-03-25T05:44:57.907Z,581.7
2019-03-25T05:45:59.787Z,582
2019-03-25T05:47:01.656Z,581.4
2019-03-25T05:48:04.082Z,581.6
2019-03-25T05:49:05.975Z,581.9
2019-03-25T05:51:12.570Z,581.6
2019-03-25T05:52:14.458Z,582.3
2019-03-25T05:53:16.622Z,582.1
2019-03-25T05:54:18.778Z,581.6
2019-03-25T05:55:20.928Z,581.1
2019-03-25T05:56:23.091Z,581.4
2019-03-25T05:57:25.512Z,580.8
2019-03-25T05:58:27.654Z,581.1
2019-03-25T05:59:30.226Z,580.7
2019-03-25T06:00:32.640Z,580.6
2019-03-25T06:01:35.075Z,580.4
2019-03-25T06:02:37.491Z,580.4
2019-03-25T06:03:39.922Z,579.8
2019-03-25T06:04:42.363Z,580.3
2019-03-25T06:05:44.798Z,580.2
2019-03-25T06:06:46.971Z,580.1
2019-03-25T06:07:49.178Z,580.3
2019-03-25T06:08:51.617Z,580.3
2019-03-25T06:09:53.776Z,580.4
2019-03-25T06:10:55.941Z,580.5
2019-03-25T06:11:58.429Z,580.2
2019-03-25T06:13:00.603Z,580.8
2019-03-25T06:14:02.495Z,580.5
2019-03-25T06:15:04.679Z,580.4
2019-03-25T06:16:07.122Z,581.3
2019-03-25T06:17:09.580Z,580.8
2019-03-25T06:18:12.026Z,580.9
2019-03-25T06:19:14.470Z,580.6
2019-03-25T06:20:16.622Z,581
2019-03-25T06:21:19.080Z,580.2
2019-03-25T06:22:21.545Z,580.3
2019-03-25T06:23:24.013Z,580
2019-03-25T06:24:26.197Z,579.8
2019-03-25T06:25:28.653Z,579.5
2019-03-25T06:26:31.129Z,579.7
2019-03-25T06:27:33.016Z,579.1
2019-03-25T06:28:35.436Z,579.1
2019-03-25T06:29:37.590Z,579.2
2019-03-25T06:30:39.749Z,578.9
2019-03-25T06:31:42.192Z,578.6
2019-03-25T06:32:44.640Z,577.6
2019-03-25T06:33:47.100Z,578.5
2019-03-25T06:34:49.548Z,578.4
2019-03-25T06:35:51.737Z,578.3
2019-03-25T06:36:53.650Z,578.3
2019-03-25T06:37:56.097Z,578.3
2019-03-25T06:38:58.300Z,578.4
2019-03-25T06:40:00.460Z,577.9
2019-03-25T06:41:02.910Z,578.3
2019-03-25T06:42:05.057Z,577.7
2019-03-25T06:43:07.488Z,578.5
2019-03-25T06:44:09.650Z,577.5
2019-03-25T06:45:11.811Z,578.2
2019-03-25T06:46:14.253Z,578.2
2019-03-25T06:47:16.394Z,578.1
2019-03-25T06:48:18.570Z,577.7
2019-03-25T06:49:21.003Z,578.2
2019-03-25T06:50:23.170Z,578.7
2019-03-25T06:51:25.608Z,578.3
2019-03-25T06:52:28.052Z,578.7
2019-03-25T06:53:30.484Z,578.3
2019-03-25T06:54:32.649Z,578.8
2019-03-25T06:55:34.813Z,578.3
2019-03-25T06:56:36.986Z,578.8
2019-03-25T06:57:40.790Z,578.2
2019-03-25T06:58:42.948Z,578.6
2019-03-25T06:59:45.384Z,578.4
2019-03-25T07:00:47.551Z,578.9
2019-03-25T07:01:49.986Z,578.6
2019-03-25T07:02:52.410Z,578.9
2019-03-25T07:03:54.849Z,579.1
2019-03-25T07:04:57.009Z,578.7
2019-03-25T07:05:59.431Z,578.5
2019-03-25T07:07:01.323Z,578.8
2019-03-25T07:08:02.923Z,579.1
2019-03-25T07:09:05.091Z,578.9
2019-03-25T07:10:07.294Z,578.3
2019-03-25T07:11:09.733Z,578.5
2019-03-25T07:12:11.998Z,578.7
2019-03-25T07:13:14.139Z,579.2
2019-03-25T07:14:16.572Z,579.3
2019-03-25T07:15:19.006Z,579.2
2019-03-25T07:16:21.173Z,579.1
2019-03-25T07:17:23.607Z,579
2019-03-25T07:18:25.494Z,579.1
2019-03-25T07:19:27.678Z,579.4
2019-03-25T07:20:30.129Z,579.3
2019-03-25T07:21:32.568Z,579.2
2019-03-25T07:22:34.757Z,578.9
2019-03-25T07:23:36.916Z,578.5
2019-03-25T07:24:39.099Z,578.5
2019-03-25T07:25:41.529Z,578.7
2019-03-25T07:26:43.970Z,578.4
2019-03-25T07:27:46.125Z,578.4
2019-03-25T07:28:48.281Z,578.3
2019-03-25T07:29:50.730Z,578.5
2019-03-25T07:30:53.180Z,578.5
2019-03-25T07:31:55.337Z,578.3
2019-03-25T07:32:57.478Z,578.3
2019-03-25T07:33:59.406Z,578.5
2019-03-25T07:35:01.841Z,578.8
2019-03-25T07:36:03.993Z,578.6
2019-03-25T07:37:06.450Z,578.2
2019-03-25T07:38:08.868Z,578.4
2019-03-25T07:39:11.004Z,578.7
2019-03-25T07:40:13.428Z,578.3
2019-03-25T07:42:21.068Z,578.6
2019-03-25T07:43:23.513Z,578.9
2019-03-25T07:44:25.654Z,578.6
2019-03-25T07:45:28.080Z,577.9
2019-03-25T07:46:30.504Z,578.4
2019-03-25T07:47:32.932Z,578.4
2019-03-25T07:48:35.364Z,578.1
2019-03-25T07:49:37.788Z,578.6
2019-03-25T07:50:40.228Z,577.9
2019-03-25T07:51:42.655Z,578.3
2019-03-25T07:52:44.804Z,578.4
2019-03-25T07:53:46.972Z,578.2
2019-03-25T07:54:49.420Z,578.6
2019-03-25T07:55:51.575Z,578.4
2019-03-25T07:56:54.002Z,578.4
2019-03-25T07:57:56.437Z,578
2019-03-25T07:58:58.617Z,577.9
2019-03-25T08:00:00.629Z,578.5
2019-03-25T08:01:03.123Z,578.2
2019-03-25T08:02:05.307Z,578.1
2019-03-25T08:03:07.188Z,578.4
2019-03-25T08:04:09.644Z,578.3
2019-03-25T08:05:12.060Z,578.7
2019-03-25T08:06:14.520Z,578.7
2019-03-25T08:07:16.964Z,578.4
2019-03-25T08:08:19.399Z,578.3
2019-03-25T08:09:21.889Z,578.1
2019-03-25T08:10:24.321Z,578
2019-03-25T08:11:25.720Z,578.7
2019-03-25T08:12:28.178Z,578.5
2019-03-25T08:13:30.626Z,579
2019-03-25T08:14:33.122Z,578.6
2019-03-25T08:15:35.659Z,578.6
2019-03-25T08:16:38.141Z,578.8
2019-03-25T08:17:40.607Z,578.9
2019-03-25T08:18:43.084Z,578.5
2019-03-25T08:19:45.563Z,578.3
2019-03-25T08:20:48.032Z,578.9
2019-03-25T08:21:50.507Z,579.5
2019-03-25T08:22:52.706Z,579.3
2019-03-25T08:23:54.897Z,578.9
2019-03-25T08:24:57.372Z,579.2
2019-03-25T08:25:59.855Z,578.6
2019-03-25T08:27:02.061Z,579.3
2019-03-25T08:28:04.076Z,578.6
2019-03-25T08:29:06.543Z,578.4
2019-03-25T08:30:09.014Z,578.6
2019-03-25T08:31:11.474Z,578.3
2019-03-25T08:32:13.645Z,577.7
2019-03-25T08:33:16.349Z,577.5
2019-03-25T08:34:18.805Z,577.6
2019-03-25T08:35:20.932Z,577.8
2019-03-25T08:36:23.150Z,577.8
2019-03-25T08:37:25.357Z,577.9
2019-03-25T08:38:27.857Z,577.6
2019-03-25T08:39:30.327Z,578.4
2019-03-25T08:40:32.808Z,578.3
2019-03-25T08:41:35.329Z,577.2
2019-03-25T08:42:37.307Z,578
2019-03-25T08:43:39.514Z,578.3
2019-03-25T08:44:41.718Z,577.7
2019-03-25T08:45:43.937Z,577.8
2019-03-25T08:46:46.193Z,577.7
2019-03-25T08:47:48.707Z,578.5
2019-03-25T08:48:51.192Z,577.9
2019-03-25T08:49:53.670Z,578.4
2019-03-25T08:50:56.140Z,578.3
2019-03-25T08:51:58.617Z,578.7
2019-03-25T08:53:00.529Z,578
2019-03-25T08:54:03.014Z,578.3
2019-03-25T08:55:05.488Z,578.4
2019-03-25T08:56:07.975Z,578.3
2019-03-25T08:57:09.883Z,578.1
2019-03-25T08:58:14.317Z,578.3
2019-03-25T08:59:16.244Z,578.7
2019-03-25T09:00:18.162Z,578
2019-03-25T09:01:20.367Z,578.7
2019-03-25T09:02:22.271Z,578.6
2019-03-25T09:03:24.468Z,578.7
2019-03-25T09:04:26.939Z,579
2019-03-25T09:05:29.412Z,578.4
2019-03-25T09:06:31.887Z,578.1
2019-03-25T09:07:34.359Z,577.8
2019-03-25T09:08:36.830Z,578
2019-03-25T09:09:39.325Z,578.2
2019-03-25T09:10:41.540Z,577.9
2019-03-25T09:11:44.008Z,577.5
2019-03-25T09:12:46.206Z,578.3
2019-03-25T09:13:48.792Z,577.9
2019-03-25T09:14:51.346Z,578.1
2019-03-25T09:15:53.616Z,577.9
2019-03-25T09:16:56.140Z,578
2019-03-25T09:17:58.652Z,577.7
2019-03-25T09:19:01.137Z,578
2019-03-25T09:20:03.084Z,578.4
2019-03-25T09:21:05.559Z,578.1
2019-03-25T09:22:08.054Z,578.4
2019-03-25T09:23:10.520Z,578
2019-03-25T09:24:12.730Z,578.3
2019-03-25T09:25:15.203Z,578
2019-03-25T09:26:17.128Z,578
2019-03-25T09:27:19.610Z,578.1
2019-03-25T09:29:26.815Z,577.5
2019-03-25T09:30:29.278Z,578.2
2019-03-25T09:32:36.752Z,577.9
2019-03-25T09:33:39.270Z,578.1
2019-03-25T09:34:41.786Z,578.5
2019-03-25T09:35:44.166Z,577.8
2019-03-25T09:36:46.656Z,578.4
2019-03-25T09:37:48.850Z,578.1
2019-03-25T09:38:51.323Z,577.4
2019-03-25T09:39:53.515Z,577.6
2019-03-25T09:40:55.980Z,577.5
2019-03-25T09:41:58.203Z,578.2
2019-03-25T09:43:00.132Z,577.8
2019-03-25T09:44:02.324Z,578.1
2019-03-25T09:45:04.525Z,577.4
2019-03-25T09:46:06.990Z,577.5
2019-03-25T09:47:09.195Z,576.9
2019-03-25T09:48:11.665Z,577.9
2019-03-25T09:49:13.845Z,577.6
2019-03-25T09:50:16.325Z,578
2019-03-25T09:51:18.521Z,577.7
2019-03-25T09:52:20.730Z,577.8
2019-03-25T09:53:23.199Z,577.4
2019-03-25T09:54:25.667Z,577.2
2019-03-25T09:55:27.868Z,576.9
2019-03-25T09:56:30.074Z,576.2
2019-03-25T09:57:32.003Z,576.4
2019-03-25T09:59:39.462Z,575.8
2019-03-25T10:00:41.377Z,576.5
2019-03-25T10:01:43.854Z,576.9
2019-03-25T10:02:46.360Z,576.9
2019-03-25T10:03:48.827Z,576.2
2019-03-25T10:04:51.320Z,577.1
2019-03-25T10:05:53.782Z,575.9
2019-03-25T10:06:55.954Z,576.1
2019-03-25T10:07:58.421Z,576.2
2019-03-25T10:09:00.697Z,575.5
2019-03-25T10:10:03.156Z,576.5
2019-03-25T10:11:05.358Z,576.3
2019-03-25T10:12:07.824Z,576.5
2019-03-25T10:13:10.283Z,576.4
2019-03-25T10:14:12.482Z,576
2019-03-25T10:15:14.946Z,575.5
2019-03-25T10:16:17.417Z,576
2019-03-25T10:17:19.625Z,576.1
2019-03-25T10:18:22.083Z,576.1
2019-03-25T10:19:24.307Z,576.3
2019-03-25T10:20:26.209Z,576.9
2019-03-25T10:21:28.626Z,577.3
2019-03-25T10:22:31.210Z,578.3
2019-03-25T10:23:33.693Z,577.8
2019-03-25T10:24:36.179Z,577.7
2019-03-25T10:25:38.652Z,578.2
2019-03-25T10:26:40.854Z,577.7
2019-03-25T10:27:43.045Z,578.1
2019-03-25T10:29:50.514Z,578.7
2019-03-25T10:30:52.770Z,579.6
2019-03-25T10:31:55.033Z,579
2019-03-25T10:32:57.525Z,579.6
2019-03-25T10:33:59.733Z,580.2
2019-03-25T10:35:02.111Z,579.8
2019-03-25T10:36:04.274Z,580
2019-03-25T10:37:06.739Z,579.7
2019-03-25T10:39:14.210Z,580.1
2019-03-25T10:40:16.736Z,580.2
2019-03-25T10:41:19.206Z,579.7
2019-03-25T10:42:21.674Z,579.9
2019-03-25T10:43:23.882Z,579.6
2019-03-25T10:44:25.821Z,580.1
2019-03-25T10:45:28.271Z,579.7
2019-03-25T10:46:30.460Z,579.5
2019-03-25T10:47:32.938Z,579.5
2019-03-25T10:48:35.403Z,579.5
2019-03-25T10:49:37.866Z,579.6
2019-03-25T10:50:40.079Z,579.7
2019-03-25T10:51:42.577Z,580
2019-03-25T10:52:45.066Z,580.2
2019-03-25T10:53:47.231Z,580.2
2019-03-25T10:54:50.176Z,580
2019-03-25T10:55:52.769Z,580
2019-03-25T10:56:54.965Z,579.5
2019-03-25T10:57:57.430Z,580.6
2019-03-25T10:59:00.596Z,579.9
2019-03-25T11:00:02.800Z,580.5
2019-03-25T11:01:05.288Z,579.9
2019-03-25T11:02:07.759Z,580.1
2019-03-25T11:03:10.223Z,580.5
2019-03-25T11:04:12.700Z,580.3
2019-03-25T11:05:15.171Z,580.7
2019-03-25T11:06:17.109Z,580.6
2019-03-25T11:07:19.597Z,581.3
2019-03-25T11:08:21.266Z,580.8
2019-03-25T11:09:23.795Z,580.5
2019-03-25T11:10:26.269Z,581
2019-03-25T11:11:28.209Z,581.4
2019-03-25T11:12:30.738Z,581.4
2019-03-25T11:13:32.654Z,581.4
2019-03-25T11:14:35.130Z,582.1
2019-03-25T11:15:37.609Z,582.9
2019-03-25T11:16:39.775Z,582.6
2019-03-25T11:17:42.246Z,582.3
2019-03-25T11:18:44.723Z,581.1
2019-03-25T11:19:46.918Z,581.2
2019-03-25T11:20:49.384Z,581.5
2019-03-25T11:21:51.562Z,581.4
2019-03-25T11:22:53.787Z,581.2
2019-03-25T11:23:56.285Z,580.9
2019-03-25T11:24:58.756Z,581.6
2019-03-25T11:26:00.950Z,580.9
2019-03-25T11:27:03.420Z,581.7
2019-03-25T11:28:05.605Z,581.9
2019-03-25T11:30:12.835Z,581.4
2019-03-25T11:31:15.079Z,581
2019-03-25T11:32:17.608Z,582.5
2019-03-25T11:33:20.105Z,582.8
2019-03-25T11:34:22.596Z,581.9
2019-03-25T11:35:25.083Z,582.5
2019-03-25T11:36:27.310Z,583.3
2019-03-25T11:37:29.225Z,582.9
2019-03-25T11:38:31.176Z,582.9
2019-03-25T11:39:33.664Z,582.9
2019-03-25T11:40:36.138Z,582.6
2019-03-25T11:41:38.614Z,582.4
2019-03-25T11:42:40.787Z,581.7
2019-03-25T11:43:42.978Z,581.8
2019-03-25T11:44:45.462Z,582.1
2019-03-25T11:45:47.366Z,582.5
2019-03-25T11:46:49.274Z,582.2
2019-03-25T11:47:51.740Z,581.9
2019-03-25T11:48:54.252Z,582.5
2019-03-25T11:49:56.739Z,581.4
2019-03-25T11:50:59.221Z,583.1
2019-03-25T11:52:01.696Z,583.4
2019-03-25T11:53:04.176Z,582.3
2019-03-25T11:54:06.369Z,582.3
2019-03-25T11:55:08.826Z,582.8
2019-03-25T11:56:11.028Z,582.3
2019-03-25T11:57:13.494Z,582.9
2019-03-25T11:58:15.684Z,582.9
2019-03-25T12:00:25.290Z,583.2
2019-03-25T12:01:27.766Z,582.7
2019-03-25T12:02:29.961Z,582.6
2019-03-25T12:03:32.224Z,582.2
2019-03-25T12:04:34.684Z,582
2019-03-25T12:05:37.150Z,581.3
2019-03-25T12:06:39.632Z,583
2019-03-25T12:07:42.104Z,582.5
2019-03-25T12:08:44.570Z,581.9
2019-03-25T12:09:47.034Z,581.6
2019-03-25T12:10:49.510Z,582.6
2019-03-25T12:11:51.980Z,582.7
2019-03-25T12:12:54.451Z,583.1
2019-03-25T12:13:56.937Z,582.7
2019-03-25T12:15:01.369Z,582.7
2019-03-25T12:16:06.069Z,583.2
2019-03-25T12:17:08.270Z,584
2019-03-25T12:18:10.738Z,583.9
2019-03-25T12:19:12.944Z,584.3
2019-03-25T12:20:15.432Z,584
2019-03-25T12:21:17.624Z,584.4
2019-03-25T12:22:19.851Z,584.2
2019-03-25T12:24:27.312Z,584.8
2019-03-25T12:25:29.804Z,584.4
2019-03-25T12:26:32.284Z,583.7
2019-03-25T12:27:34.923Z,584.1
2019-03-25T12:28:37.125Z,584.6
2019-03-25T12:29:39.602Z,584.5
2019-03-25T12:30:42.078Z,585.1
2019-03-25T12:31:44.293Z,584.4
2019-03-25T12:32:46.771Z,584.5
2019-03-25T12:33:49.232Z,584.2
2019-03-25T12:34:51.714Z,584.8
2019-03-25T12:35:54.179Z,584.8
2019-03-25T12:36:56.708Z,586
2019-03-25T12:37:59.193Z,584.7
2019-03-25T12:39:01.666Z,584.5
2019-03-25T12:40:04.135Z,584.2
2019-03-25T12:41:06.603Z,584.8
2019-03-25T12:42:09.073Z,584.7
2019-03-25T12:43:11.544Z,584.7
2019-03-25T12:44:13.731Z,584.7
2019-03-25T12:45:16.217Z,585
2019-03-25T12:46:18.423Z,585
2019-03-25T12:47:20.631Z,584.9
2019-03-25T12:48:22.809Z,584.9
2019-03-25T12:49:25.034Z,585.4
2019-03-25T12:50:27.240Z,584.9
2019-03-25T12:51:29.813Z,585.4
2019-03-25T12:52:32.030Z,585
2019-03-25T12:53:34.503Z,585.1
2019-03-25T12:54:36.984Z,584.7
2019-03-25T12:55:39.187Z,585
2019-03-25T12:56:41.192Z,584.2
2019-03-25T12:57:43.731Z,584.6
2019-03-25T12:58:46.237Z,584.1
2019-03-25T12:59:48.713Z,583.3
2019-03-25T13:00:51.196Z,583.5
2019-03-25T13:01:55.346Z,583.4
2019-03-25T13:02:57.553Z,583.1
2019-03-25T13:04:00.048Z,582.7
2019-03-25T13:05:02.247Z,582.8
2019-03-25T13:06:04.732Z,582.9
2019-03-25T13:07:07.210Z,582.8
2019-03-25T13:08:09.682Z,582.6
2019-03-25T13:09:12.167Z,581.9
2019-03-25T13:10:14.366Z,582.4
2019-03-25T13:11:16.844Z,581.8
2019-03-25T13:12:19.336Z,581.5
2019-03-25T13:13:21.813Z,581.7
2019-03-25T13:14:24.285Z,581.2
2019-03-25T13:15:26.762Z,580.6
2019-03-25T13:16:29.243Z,581.2
2019-03-25T13:17:31.437Z,581.3
2019-03-25T13:18:33.608Z,581.4
2019-03-25T13:19:35.793Z,581.1
2019-03-25T13:20:38.289Z,581.2
2019-03-25T13:21:40.757Z,580.9
2019-03-25T13:22:43.224Z,580.7
2019-03-25T13:23:45.426Z,580.8
2019-03-25T13:24:47.906Z,581
2019-03-25T13:25:50.389Z,581
2019-03-25T13:26:52.889Z,580.4
2019-03-25T13:27:55.093Z,580.1
2019-03-25T13:30:02.575Z,580.6
2019-03-25T13:31:04.781Z,580.4
2019-03-25T13:32:06.693Z,581
2019-03-25T13:33:09.198Z,581
2019-03-25T13:34:11.658Z,580.1
2019-03-25T13:35:13.855Z,581.4
2019-03-25T13:36:16.351Z,580.8
2019-03-25T13:37:18.557Z,581.1
2019-03-25T13:38:21.047Z,580.8
2019-03-25T13:39:23.256Z,580.8
2019-03-25T13:40:25.441Z,580.9
2019-03-25T13:41:27.919Z,581.4
2019-03-25T13:42:30.146Z,581
2019-03-25T13:43:32.642Z,581.4
2019-03-25T13:44:34.854Z,581.5